sensor_id;sensor_type;location;lat;lon;timestamp;pressure;altitude;pressure_sealevel;temperature;humidity
79075;BME280;68476;42.710;23.388;2023-08-21T00:00:42;95872.78;;;20.13;58.21
79075;BME280;68476;42.710;23.388;2023-08-21T00:03:07;95877.00;;;20.00;58.97
79075;BME280;68476;42.710;23.388;2023-08-21T00:05:33;95869.81;;;19.99;59.12
79075;BME280;68476;42.710;23.388;2023-08-21T00:07:58;95883.94;;;19.98;59.32
79075;BME280;68476;42.710;23.388;2023-08-21T00:10:24;95878.66;;;20.01;58.63
79075;BME280;68476;42.710;23.388;2023-08-21T00:12:49;95876.44;;;19.98;58.88
79075;BME280;68476;42.710;23.388;2023-08-21T00:15:14;95882.81;;;19.78;59.49
79075;BME280;68476;42.710;23.388;2023-08-21T00:17:40;95878.44;;;19.56;60.59
79075;BME280;68476;42.710;23.388;2023-08-21T00:20:06;95863.53;;;19.47;60.86
79075;BME280;68476;42.710;23.388;2023-08-21T00:22:35;95867.69;;;19.45;61.15
79075;BME280;68476;42.710;23.388;2023-08-21T00:25:00;95874.06;;;19.40;60.96
79075;BME280;68476;42.710;23.388;2023-08-21T00:27:25;95874.34;;;19.28;61.63
79075;BME280;68476;42.710;23.388;2023-08-21T00:29:51;95870.47;;;19.19;62.09
79075;BME280;68476;42.710;23.388;2023-08-21T00:32:16;95874.06;;;19.19;62.17
79075;BME280;68476;42.710;23.388;2023-08-21T00:34:42;95878.22;;;19.06;62.71
79075;BME280;68476;42.710;23.388;2023-08-21T00:37:07;95874.56;;;18.75;63.75
79075;BME280;68476;42.710;23.388;2023-08-21T00:39:32;95883.34;;;18.51;64.60
79075;BME280;68476;42.710;23.388;2023-08-21T00:41:58;95887.16;;;18.29;65.51
79075;BME280;68476;42.710;23.388;2023-08-21T00:44:23;95896.28;;;18.35;64.93
79075;BME280;68476;42.710;23.388;2023-08-21T00:46:49;95885.75;;;18.16;65.93
79075;BME280;68476;42.710;23.388;2023-08-21T00:49:14;95886.06;;;18.30;65.29
79075;BME280;68476;42.710;23.388;2023-08-21T00:51:39;95890.00;;;18.66;64.08
79075;BME280;68476;42.710;23.388;2023-08-21T00:54:05;95889.72;;;18.62;64.77
79075;BME280;68476;42.710;23.388;2023-08-21T00:56:30;95892.75;;;18.71;64.52
79075;BME280;68476;42.710;23.388;2023-08-21T00:58:56;95891.38;;;18.68;63.85
79075;BME280;68476;42.710;23.388;2023-08-21T01:01:24;95889.97;;;18.45;65.58
79075;BME280;68476;42.710;23.388;2023-08-21T01:03:52;95884.44;;;18.50;64.50
79075;BME280;68476;42.710;23.388;2023-08-21T01:06:18;95888.91;;;18.56;65.16
79075;BME280;68476;42.710;23.388;2023-08-21T01:09:01;95885.88;;;18.78;63.76
79075;BME280;68476;42.710;23.388;2023-08-21T01:11:38;95893.31;;;18.73;63.58
79075;BME280;68476;42.710;23.388;2023-08-21T01:14:31;95893.84;;;18.54;64.29
79075;BME280;68476;42.710;23.388;2023-08-21T01:17:02;95891.34;;;18.53;64.89
79075;BME280;68476;42.710;23.388;2023-08-21T01:19:37;95897.00;;;18.15;66.48
79075;BME280;68476;42.710;23.388;2023-08-21T01:22:03;95900.34;;;18.17;66.17
79075;BME280;68476;42.710;23.388;2023-08-21T01:24:29;95876.03;;;18.09;65.69
79075;BME280;68476;42.710;23.388;2023-08-21T01:26:54;95901.50;;;18.31;65.98
79075;BME280;68476;42.710;23.388;2023-08-21T01:29:20;95898.25;;;18.45;65.11
79075;BME280;68476;42.710;23.388;2023-08-21T01:31:52;95896.84;;;18.53;64.72
79075;BME280;68476;42.710;23.388;2023-08-21T01:34:22;95893.84;;;18.54;64.18
79075;BME280;68476;42.710;23.388;2023-08-21T01:36:48;95889.44;;;18.53;64.26
79075;BME280;68476;42.710;23.388;2023-08-21T01:39:14;95900.75;;;18.52;63.94
79075;BME280;68476;42.710;23.388;2023-08-21T01:41:41;95901.56;;;18.52;64.55
79075;BME280;68476;42.710;23.388;2023-08-21T01:44:06;95895.72;;;18.43;65.01
79075;BME280;68476;42.710;23.388;2023-08-21T01:46:31;95906.78;;;18.38;65.11
79075;BME280;68476;42.710;23.388;2023-08-21T01:48:57;95895.72;;;18.33;65.41
79075;BME280;68476;42.710;23.388;2023-08-21T01:51:22;95899.28;;;18.28;65.61
79075;BME280;68476;42.710;23.388;2023-08-21T01:53:47;95899.31;;;18.33;66.02
79075;BME280;68476;42.710;23.388;2023-08-21T01:56:13;95896.78;;;18.22;66.36
79075;BME280;68476;42.710;23.388;2023-08-21T01:58:38;95892.06;;;18.17;65.81
79075;BME280;68476;42.710;23.388;2023-08-21T02:01:04;95898.97;;;18.14;66.47
79075;BME280;68476;42.710;23.388;2023-08-21T02:03:30;95892.03;;;18.07;66.62
79075;BME280;68476;42.710;23.388;2023-08-21T02:05:56;95900.00;;;18.03;66.38
79075;BME280;68476;42.710;23.388;2023-08-21T02:08:30;95897.53;;;18.07;66.71
79075;BME280;68476;42.710;23.388;2023-08-21T02:10:56;95907.47;;;18.08;66.92
79075;BME280;68476;42.710;23.388;2023-08-21T02:13:22;95901.69;;;18.04;66.74
79075;BME280;68476;42.710;23.388;2023-08-21T02:15:47;95906.59;;;17.97;67.04
79075;BME280;68476;42.710;23.388;2023-08-21T02:18:13;95918.34;;;17.82;67.44
79075;BME280;68476;42.710;23.388;2023-08-21T02:20:38;95893.56;;;17.92;67.07
79075;BME280;68476;42.710;23.388;2023-08-21T02:23:04;95896.06;;;17.94;67.21
79075;BME280;68476;42.710;23.388;2023-08-21T02:25:30;95892.56;;;17.98;66.79
79075;BME280;68476;42.710;23.388;2023-08-21T02:27:55;95896.13;;;17.99;66.49
79075;BME280;68476;42.710;23.388;2023-08-21T02:30:21;95898.56;;;17.95;67.26
79075;BME280;68476;42.710;23.388;2023-08-21T02:32:50;95904.88;;;17.96;67.27
79075;BME280;68476;42.710;23.388;2023-08-21T02:35:16;95901.56;;;17.89;67.67
79075;BME280;68476;42.710;23.388;2023-08-21T02:37:41;95900.41;;;17.79;68.00
79075;BME280;68476;42.710;23.388;2023-08-21T02:40:07;95900.03;;;17.65;68.45
79075;BME280;68476;42.710;23.388;2023-08-21T02:42:35;95901.41;;;17.63;68.21
79075;BME280;68476;42.710;23.388;2023-08-21T02:45:04;95898.06;;;17.55;68.23
79075;BME280;68476;42.710;23.388;2023-08-21T02:47:42;95893.88;;;17.53;68.78
79075;BME280;68476;42.710;23.388;2023-08-21T02:50:09;95902.53;;;17.29;69.60
79075;BME280;68476;42.710;23.388;2023-08-21T02:52:35;95897.66;;;17.36;69.82
79075;BME280;68476;42.710;23.388;2023-08-21T02:55:01;95898.47;;;17.37;69.75
79075;BME280;68476;42.710;23.388;2023-08-21T02:57:27;95908.91;;;17.35;69.73
79075;BME280;68476;42.710;23.388;2023-08-21T02:59:53;95905.91;;;16.99;70.58
79075;BME280;68476;42.710;23.388;2023-08-21T03:02:18;95913.13;;;16.83;71.37
79075;BME280;68476;42.710;23.388;2023-08-21T03:04:44;95906.72;;;16.99;70.64
79075;BME280;68476;42.710;23.388;2023-08-21T03:07:10;95910.13;;;17.12;70.37
79075;BME280;68476;42.710;23.388;2023-08-21T03:09:36;95914.84;;;17.16;70.33
79075;BME280;68476;42.710;23.388;2023-08-21T03:12:02;95912.81;;;17.06;70.84
79075;BME280;68476;42.710;23.388;2023-08-21T03:14:28;95915.53;;;17.01;71.30
79075;BME280;68476;42.710;23.388;2023-08-21T03:16:54;95913.91;;;17.05;70.74
79075;BME280;68476;42.710;23.388;2023-08-21T03:19:19;95918.28;;;17.01;71.54
79075;BME280;68476;42.710;23.388;2023-08-21T03:21:45;95921.16;;;16.89;71.88
79075;BME280;68476;42.710;23.388;2023-08-21T03:24:10;95927.53;;;16.90;71.37
79075;BME280;68476;42.710;23.388;2023-08-21T03:26:36;95926.16;;;16.92;71.97
79075;BME280;68476;42.710;23.388;2023-08-21T03:29:02;95920.25;;;17.06;71.69
79075;BME280;68476;42.710;23.388;2023-08-21T03:31:27;95914.16;;;16.99;70.88
79075;BME280;68476;42.710;23.388;2023-08-21T03:33:53;95922.75;;;17.07;71.29
79075;BME280;68476;42.710;23.388;2023-08-21T03:36:18;95929.13;;;16.86;72.21
79075;BME280;68476;42.710;23.388;2023-08-21T03:38:44;95928.69;;;16.94;72.20
79075;BME280;68476;42.710;23.388;2023-08-21T03:41:10;95925.34;;;16.92;71.62
79075;BME280;68476;42.710;23.388;2023-08-21T03:43:36;95931.19;;;16.96;71.84
79075;BME280;68476;42.710;23.388;2023-08-21T03:46:01;95925.78;;;16.84;72.25
79075;BME280;68476;42.710;23.388;2023-08-21T03:48:27;95925.00;;;16.88;72.60
79075;BME280;68476;42.710;23.388;2023-08-21T03:50:52;95931.19;;;16.96;72.41
79075;BME280;68476;42.710;23.388;2023-08-21T03:53:18;95924.41;;;16.81;72.70
79075;BME280;68476;42.710;23.388;2023-08-21T03:55:43;95926.16;;;16.92;72.27
79075;BME280;68476;42.710;23.388;2023-08-21T03:58:09;95926.16;;;16.92;72.34
79075;BME280;68476;42.710;23.388;2023-08-21T04:00:34;95923.50;;;16.98;72.04
79075;BME280;68476;42.710;23.388;2023-08-21T04:03:00;95930.69;;;17.04;71.90
79075;BME280;68476;42.710;23.388;2023-08-21T04:05:25;95934.84;;;17.06;71.77
79075;BME280;68476;42.710;23.388;2023-08-21T04:07:50;95933.41;;;17.31;71.21
79075;BME280;68476;42.710;23.388;2023-08-21T04:10:16;95931.88;;;17.46;70.47
79075;BME280;68476;42.710;23.388;2023-08-21T04:12:42;95939.13;;;17.24;71.05
79075;BME280;68476;42.710;23.388;2023-08-21T04:15:08;95945.63;;;16.86;73.02
79075;BME280;68476;42.710;23.388;2023-08-21T04:17:33;95949.03;;;16.93;72.94
79075;BME280;68476;42.710;23.388;2023-08-21T04:19:59;95948.59;;;17.01;72.40
79075;BME280;68476;42.710;23.388;2023-08-21T04:22:24;95946.00;;;17.22;71.98
79075;BME280;68476;42.710;23.388;2023-08-21T04:24:49;95944.34;;;17.59;70.20
79075;BME280;68476;42.710;23.388;2023-08-21T04:27:15;95950.81;;;17.75;69.89
79075;BME280;68476;42.710;23.388;2023-08-21T04:29:40;95947.84;;;17.86;69.40
79075;BME280;68476;42.710;23.388;2023-08-21T04:32:06;95944.94;;;18.04;68.13
79075;BME280;68476;42.710;23.388;2023-08-21T04:34:34;95943.09;;;18.14;68.33
79075;BME280;68476;42.710;23.388;2023-08-21T04:37:00;95942.75;;;18.06;69.01
79075;BME280;68476;42.710;23.388;2023-08-21T04:39:25;95937.25;;;18.06;69.21
79075;BME280;68476;42.710;23.388;2023-08-21T04:41:51;95959.53;;;17.61;71.06
79075;BME280;68476;42.710;23.388;2023-08-21T04:44:16;95955.78;;;17.73;70.87
79075;BME280;68476;42.710;23.388;2023-08-21T04:46:42;95954.22;;;17.87;70.65
79075;BME280;68476;42.710;23.388;2023-08-21T04:49:07;95953.88;;;18.26;68.59
79075;BME280;68476;42.710;23.388;2023-08-21T04:51:34;95954.16;;;18.30;67.76
79075;BME280;68476;42.710;23.388;2023-08-21T04:53:59;95956.06;;;18.24;67.94
79075;BME280;68476;42.710;23.388;2023-08-21T04:56:26;95955.56;;;18.27;67.64
79075;BME280;68476;42.710;23.388;2023-08-21T04:58:52;95963.88;;;18.38;66.79
79075;BME280;68476;42.710;23.388;2023-08-21T05:01:17;95960.03;;;18.44;67.25
79075;BME280;68476;42.710;23.388;2023-08-21T05:03:43;95974.44;;;18.56;67.52
79075;BME280;68476;42.710;23.388;2023-08-21T05:06:08;95977.19;;;18.56;67.09
79075;BME280;68476;42.710;23.388;2023-08-21T05:08:34;95964.75;;;18.48;68.35
79075;BME280;68476;42.710;23.388;2023-08-21T05:10:59;95971.19;;;18.70;67.80
79075;BME280;68476;42.710;23.388;2023-08-21T05:13:25;95976.16;;;18.83;66.69
79075;BME280;68476;42.710;23.388;2023-08-21T05:15:55;95966.75;;;18.74;66.33
79075;BME280;68476;42.710;23.388;2023-08-21T05:18:21;95978.09;;;18.83;66.59
79075;BME280;68476;42.710;23.388;2023-08-21T05:20:47;95979.03;;;19.04;65.76
79075;BME280;68476;42.710;23.388;2023-08-21T05:23:13;95975.72;;;19.12;65.30
79075;BME280;68476;42.710;23.388;2023-08-21T05:25:38;95980.06;;;18.87;66.43
79075;BME280;68476;42.710;23.388;2023-08-21T05:28:04;95974.06;;;19.11;65.75
79075;BME280;68476;42.710;23.388;2023-08-21T05:30:30;95982.84;;;18.92;65.85
79075;BME280;68476;42.710;23.388;2023-08-21T05:32:55;95965.19;;;18.99;65.31
79075;BME280;68476;42.710;23.388;2023-08-21T05:35:21;95970.19;;;19.07;65.64
79075;BME280;68476;42.710;23.388;2023-08-21T05:37:46;95977.41;;;19.49;64.23
79075;BME280;68476;42.710;23.388;2023-08-21T05:40:12;95966.91;;;19.67;63.72
79075;BME280;68476;42.710;23.388;2023-08-21T05:42:37;95971.88;;;19.85;63.81
79075;BME280;68476;42.710;23.388;2023-08-21T05:45:04;95964.41;;;19.81;63.87
79075;BME280;68476;42.710;23.388;2023-08-21T05:47:30;95970.78;;;19.92;63.69
79075;BME280;68476;42.710;23.388;2023-08-21T05:49:55;95963.59;;;19.91;63.88
79075;BME280;68476;42.710;23.388;2023-08-21T05:52:21;95967.16;;;20.01;63.71
79075;BME280;68476;42.710;23.388;2023-08-21T05:54:47;95967.34;;;20.36;62.98
79075;BME280;68476;42.710;23.388;2023-08-21T05:57:13;95965.63;;;20.56;62.19
79075;BME280;68476;42.710;23.388;2023-08-21T05:59:46;95963.88;;;20.70;61.32
79075;BME280;68476;42.710;23.388;2023-08-21T06:02:12;95969.66;;;20.84;61.33
79075;BME280;68476;42.710;23.388;2023-08-21T06:04:40;95970.09;;;21.02;61.02
79075;BME280;68476;42.710;23.388;2023-08-21T06:07:06;95970.72;;;20.88;60.86
79075;BME280;68476;42.710;23.388;2023-08-21T06:09:31;95962.31;;;21.09;60.63
79075;BME280;68476;42.710;23.388;2023-08-21T06:11:59;95971.59;;;21.29;59.88
79075;BME280;68476;42.710;23.388;2023-08-21T06:14:26;95970.19;;;21.31;58.35
79075;BME280;68476;42.710;23.388;2023-08-21T06:16:56;95968.91;;;21.53;58.07
79075;BME280;68476;42.710;23.388;2023-08-21T06:19:22;95965.56;;;21.56;57.25
79075;BME280;68476;42.710;23.388;2023-08-21T06:21:47;95968.59;;;21.65;57.02
79075;BME280;68476;42.710;23.388;2023-08-21T06:24:13;95965.75;;;21.70;56.81
79075;BME280;68476;42.710;23.388;2023-08-21T06:26:39;95963.16;;;21.84;55.96
79075;BME280;68476;42.710;23.388;2023-08-21T06:29:05;95967.63;;;22.09;55.54
79075;BME280;68476;42.710;23.388;2023-08-21T06:31:30;95966.09;;;22.22;55.24
79075;BME280;68476;42.710;23.388;2023-08-21T06:33:56;95972.69;;;22.26;54.32
79075;BME280;68476;42.710;23.388;2023-08-21T06:36:21;95970.91;;;22.41;54.44
79075;BME280;68476;42.710;23.388;2023-08-21T06:38:46;95976.22;;;22.61;53.81
79075;BME280;68476;42.710;23.388;2023-08-21T06:41:12;95973.72;;;22.84;53.81
79075;BME280;68476;42.710;23.388;2023-08-21T06:43:37;95975.53;;;22.94;53.08
79075;BME280;68476;42.710;23.388;2023-08-21T06:46:03;95977.88;;;22.87;52.88
79075;BME280;68476;42.710;23.388;2023-08-21T06:48:28;95967.19;;;22.94;52.80
79075;BME280;68476;42.710;23.388;2023-08-21T06:50:53;95969.34;;;23.21;52.51
79075;BME280;68476;42.710;23.388;2023-08-21T06:53:19;95965.69;;;22.83;53.20
79075;BME280;68476;42.710;23.388;2023-08-21T06:55:45;95969.13;;;22.93;53.29
79075;BME280;68476;42.710;23.388;2023-08-21T06:58:11;95971.88;;;23.56;51.54
79075;BME280;68476;42.710;23.388;2023-08-21T07:00:36;95960.00;;;23.50;51.39
79075;BME280;68476;42.710;23.388;2023-08-21T07:03:02;95971.91;;;23.70;51.66
79075;BME280;68476;42.710;23.388;2023-08-21T07:05:28;95966.72;;;23.82;50.87
79075;BME280;68476;42.710;23.388;2023-08-21T07:07:54;95961.72;;;23.98;50.35
79075;BME280;68476;42.710;23.388;2023-08-21T07:10:20;95963.19;;;24.24;50.53
79075;BME280;68476;42.710;23.388;2023-08-21T07:12:46;95959.31;;;24.53;49.28
79075;BME280;68476;42.710;23.388;2023-08-21T07:15:11;95952.19;;;24.46;49.21
79075;BME280;68476;42.710;23.388;2023-08-21T07:17:37;95962.09;;;24.67;48.92
79075;BME280;68476;42.710;23.388;2023-08-21T07:20:03;95959.41;;;24.20;49.61
79075;BME280;68476;42.710;23.388;2023-08-21T07:22:29;95949.00;;;24.67;48.75
79075;BME280;68476;42.710;23.388;2023-08-21T07:24:54;95950.09;;;24.94;47.74
79075;BME280;68476;42.710;23.388;2023-08-21T07:27:20;95951.47;;;24.97;47.17
79075;BME280;68476;42.710;23.388;2023-08-21T07:29:46;95946.69;;;24.97;47.32
79075;BME280;68476;42.710;23.388;2023-08-21T07:32:11;95945.19;;;25.28;46.53
79075;BME280;68476;42.710;23.388;2023-08-21T07:34:36;95951.88;;;25.41;46.42
79075;BME280;68476;42.710;23.388;2023-08-21T07:37:02;95951.41;;;25.61;45.57
79075;BME280;68476;42.710;23.388;2023-08-21T07:39:27;95943.78;;;25.39;46.32
79075;BME280;68476;42.710;23.388;2023-08-21T07:41:53;95952.03;;;25.58;45.65
79075;BME280;68476;42.710;23.388;2023-08-21T07:44:18;95955.06;;;25.71;45.35
79075;BME280;68476;42.710;23.388;2023-08-21T07:46:44;95943.41;;;26.23;44.02
79075;BME280;68476;42.710;23.388;2023-08-21T07:49:09;95939.44;;;26.55;43.98
79075;BME280;68476;42.710;23.388;2023-08-21T07:51:35;95938.75;;;26.99;42.94
79075;BME280;68476;42.710;23.388;2023-08-21T07:54:01;95936.31;;;27.23;42.15
79075;BME280;68476;42.710;23.388;2023-08-21T07:56:26;95942.59;;;26.63;43.26
79075;BME280;68476;42.710;23.388;2023-08-21T07:58:52;95940.13;;;26.70;42.74
79075;BME280;68476;42.710;23.388;2023-08-21T08:01:17;95939.66;;;26.76;42.61
79075;BME280;68476;42.710;23.388;2023-08-21T08:03:42;95936.31;;;27.15;42.01
79075;BME280;68476;42.710;23.388;2023-08-21T08:06:08;95931.91;;;27.58;41.15
79075;BME280;68476;42.710;23.388;2023-08-21T08:08:33;95922.53;;;27.45;41.03
79075;BME280;68476;42.710;23.388;2023-08-21T08:11:02;95924.97;;;27.64;40.67
79075;BME280;68476;42.710;23.388;2023-08-21T08:13:29;95917.34;;;27.99;40.01
79075;BME280;68476;42.710;23.388;2023-08-21T08:15:54;95917.00;;;28.19;39.39
79075;BME280;68476;42.710;23.388;2023-08-21T08:18:20;95920.19;;;28.47;38.82
79075;BME280;68476;42.710;23.388;2023-08-21T08:20:45;95923.22;;;28.33;38.75
79075;BME280;68476;42.710;23.388;2023-08-21T08:23:11;95914.47;;;28.73;38.35
79075;BME280;68476;42.710;23.388;2023-08-21T08:25:36;95914.91;;;29.05;37.70
79075;BME280;68476;42.710;23.388;2023-08-21T08:28:02;95915.53;;;29.41;37.17
79075;BME280;68476;42.710;23.388;2023-08-21T08:30:27;95907.28;;;29.36;36.60
79075;BME280;68476;42.710;23.388;2023-08-21T08:32:53;95909.94;;;29.32;36.57
79075;BME280;68476;42.710;23.388;2023-08-21T08:35:18;95902.19;;;28.87;37.45
79075;BME280;68476;42.710;23.388;2023-08-21T08:37:44;95899.88;;;28.89;37.17
79075;BME280;68476;42.710;23.388;2023-08-21T08:40:12;95893.75;;;29.38;36.26
79075;BME280;68476;42.710;23.388;2023-08-21T08:42:38;95898.72;;;29.32;36.01
79075;BME280;68476;42.710;23.388;2023-08-21T08:45:04;95893.31;;;29.27;36.28
79075;BME280;68476;42.710;23.388;2023-08-21T08:47:33;95890.19;;;29.50;35.88
79075;BME280;68476;42.710;23.388;2023-08-21T08:50:02;95890.53;;;30.16;34.96
79075;BME280;68476;42.710;23.388;2023-08-21T08:52:31;95884.38;;;30.59;33.79
79075;BME280;68476;42.710;23.388;2023-08-21T08:54:57;95880.69;;;31.21;32.73
79075;BME280;68476;42.710;23.388;2023-08-21T08:57:23;95892.06;;;31.00;33.21
79075;BME280;68476;42.710;23.388;2023-08-21T08:59:48;95876.28;;;30.70;33.04
79075;BME280;68476;42.710;23.388;2023-08-21T09:02:15;95874.50;;;31.03;32.66
79075;BME280;68476;42.710;23.388;2023-08-21T09:04:41;95882.66;;;31.08;32.74
79075;BME280;68476;42.710;23.388;2023-08-21T09:07:10;95882.38;;;30.97;32.99
79075;BME280;68476;42.710;23.388;2023-08-21T09:09:40;95870.84;;;31.15;32.58
79075;BME280;68476;42.710;23.388;2023-08-21T09:12:10;95876.81;;;31.26;31.87
79075;BME280;68476;42.710;23.388;2023-08-21T09:14:39;95859.00;;;31.22;30.68
79075;BME280;68476;42.710;23.388;2023-08-21T09:17:05;95870.94;;;31.18;30.82
79075;BME280;68476;42.710;23.388;2023-08-21T09:19:31;95860.22;;;31.65;30.24
79075;BME280;68476;42.710;23.388;2023-08-21T09:21:57;95859.78;;;31.91;29.59
79075;BME280;68476;42.710;23.388;2023-08-21T09:24:23;95865.25;;;32.16;28.77
79075;BME280;68476;42.710;23.388;2023-08-21T09:26:50;95855.94;;;31.84;29.23
79075;BME280;68476;42.710;23.388;2023-08-21T09:29:15;95854.72;;;32.45;28.34
79075;BME280;68476;42.710;23.388;2023-08-21T09:31:40;95831.81;;;32.31;27.77
79075;BME280;68476;42.710;23.388;2023-08-21T09:34:08;95855.38;;;32.38;27.95
79075;BME280;68476;42.710;23.388;2023-08-21T09:36:34;95846.59;;;32.76;27.70
79075;BME280;68476;42.710;23.388;2023-08-21T09:39:01;95847.69;;;32.71;27.81
79075;BME280;68476;42.710;23.388;2023-08-21T09:41:28;95850.72;;;32.14;28.01
79075;BME280;68476;42.710;23.388;2023-08-21T09:43:58;95839.63;;;32.37;27.48
79075;BME280;68476;42.710;23.388;2023-08-21T09:46:25;95844.44;;;32.21;27.99
79075;BME280;68476;42.710;23.388;2023-08-21T09:48:54;95843.25;;;32.54;28.38
79075;BME280;68476;42.710;23.388;2023-08-21T09:51:20;95832.88;;;32.58;27.18
79075;BME280;68476;42.710;23.388;2023-08-21T09:53:48;95834.81;;;32.54;27.43
79075;BME280;68476;42.710;23.388;2023-08-21T09:56:14;95834.69;;;32.66;27.60
79075;BME280;68476;42.710;23.388;2023-08-21T09:58:39;95831.44;;;33.00;27.32
79075;BME280;68476;42.710;23.388;2023-08-21T10:01:06;95819.94;;;33.28;27.10
79075;BME280;68476;42.710;23.388;2023-08-21T10:03:40;95816.06;;;33.17;26.99
79075;BME280;68476;42.710;23.388;2023-08-21T10:06:08;95819.81;;;33.60;26.40
79075;BME280;68476;42.710;23.388;2023-08-21T10:08:41;95815.03;;;33.06;26.95
79075;BME280;68476;42.710;23.388;2023-08-21T10:11:08;95814.88;;;33.34;26.92
79075;BME280;68476;42.710;23.388;2023-08-21T10:13:36;95807.78;;;33.63;26.23
79075;BME280;68476;42.710;23.388;2023-08-21T10:16:02;95813.09;;;34.35;25.45
79075;BME280;68476;42.710;23.388;2023-08-21T10:18:33;95805.22;;;34.44;24.96
79075;BME280;68476;42.710;23.388;2023-08-21T10:23:46;95802.69;;;37.52;20.82
79075;BME280;68476;42.710;23.388;2023-08-21T10:26:13;95798.81;;;38.97;19.72
79075;BME280;68476;42.710;23.388;2023-08-21T10:31:35;95791.44;;;39.07;17.99
79075;BME280;68476;42.710;23.388;2023-08-21T10:34:12;95787.44;;;38.83;18.09
79075;BME280;68476;42.710;23.388;2023-08-21T10:39:20;95776.97;;;39.72;17.26
79075;BME280;68476;42.710;23.388;2023-08-21T10:41:56;95777.56;;;40.05;16.99
79075;BME280;68476;42.710;23.388;2023-08-21T10:44:47;95774.69;;;39.38;17.05
79075;BME280;68476;42.710;23.388;2023-08-21T10:47:31;95769.47;;;39.00;17.58
79075;BME280;68476;42.710;23.388;2023-08-21T10:50:08;95767.53;;;38.61;17.75
79075;BME280;68476;42.710;23.388;2023-08-21T10:52:41;95771.91;;;37.75;18.82
79075;BME280;68476;42.710;23.388;2023-08-21T10:55:08;95762.94;;;40.00;16.91
79075;BME280;68476;42.710;23.388;2023-08-21T10:57:37;95765.44;;;39.94;16.51
79075;BME280;68476;42.710;23.388;2023-08-21T11:00:08;95762.69;;;41.54;14.92
79075;BME280;68476;42.710;23.388;2023-08-21T11:02:39;95764.78;;;40.77;15.34
79075;BME280;68476;42.710;23.388;2023-08-21T11:05:05;95758.50;;;41.94;14.35
79075;BME280;68476;42.710;23.388;2023-08-21T11:07:51;95758.34;;;39.50;16.82
79075;BME280;68476;42.710;23.388;2023-08-21T11:10:18;95758.72;;;39.52;16.40
79075;BME280;68476;42.710;23.388;2023-08-21T11:15:16;95746.63;;;40.53;15.55
79075;BME280;68476;42.710;23.388;2023-08-21T11:17:41;95758.88;;;40.50;15.85
79075;BME280;68476;42.710;23.388;2023-08-21T11:20:07;95751.41;;;40.67;15.34
79075;BME280;68476;42.710;23.388;2023-08-21T11:22:33;95748.66;;;40.56;15.31
79075;BME280;68476;42.710;23.388;2023-08-21T11:24:58;95749.38;;;41.09;14.78
79075;BME280;68476;42.710;23.388;2023-08-21T11:27:24;95749.41;;;41.02;15.07
79075;BME280;68476;42.710;23.388;2023-08-21T11:29:50;95750.38;;;41.26;15.06
79075;BME280;68476;42.710;23.388;2023-08-21T11:32:18;95743.84;;;40.88;15.25
79075;BME280;68476;42.710;23.388;2023-08-21T11:34:51;95748.66;;;41.33;14.73
79075;BME280;68476;42.710;23.388;2023-08-21T11:37:18;95738.88;;;42.19;14.23
79075;BME280;68476;42.710;23.388;2023-08-21T11:39:48;95740.25;;;41.53;14.39
79075;BME280;68476;42.710;23.388;2023-08-21T11:42:14;95733.38;;;39.72;15.67
79075;BME280;68476;42.710;23.388;2023-08-21T11:44:50;95723.75;;;41.33;14.40
79075;BME280;68476;42.710;23.388;2023-08-21T11:47:17;95723.84;;;40.46;14.89
79075;BME280;68476;42.710;23.388;2023-08-21T11:49:44;95731.69;;;39.82;14.86
79075;BME280;68476;42.710;23.388;2023-08-21T11:52:13;95728.34;;;39.94;14.60
79075;BME280;68476;42.710;23.388;2023-08-21T11:54:40;95730.31;;;39.30;15.49
79075;BME280;68476;42.710;23.388;2023-08-21T11:57:12;95723.53;;;38.98;16.44
79075;BME280;68476;42.710;23.388;2023-08-21T11:59:38;95727.09;;;39.28;16.25
79075;BME280;68476;42.710;23.388;2023-08-21T12:02:27;95721.81;;;41.26;14.15
79075;BME280;68476;42.710;23.388;2023-08-21T12:05:05;95721.38;;;40.90;14.71
79075;BME280;68476;42.710;23.388;2023-08-21T12:07:32;95701.16;;;40.31;14.73
79075;BME280;68476;42.710;23.388;2023-08-21T12:09:58;95715.13;;;40.67;14.94
79075;BME280;68476;42.710;23.388;2023-08-21T12:12:23;95710.84;;;39.92;15.23
79075;BME280;68476;42.710;23.388;2023-08-21T12:14:49;95710.03;;;41.79;13.74
79075;BME280;68476;42.710;23.388;2023-08-21T12:17:14;95711.00;;;42.71;12.92
79075;BME280;68476;42.710;23.388;2023-08-21T12:19:40;95706.72;;;41.84;13.34
79075;BME280;68476;42.710;23.388;2023-08-21T12:22:07;95701.88;;;41.19;13.86
79075;BME280;68476;42.710;23.388;2023-08-21T12:24:32;95719.22;;;41.67;13.41
79075;BME280;68476;42.710;23.388;2023-08-21T12:26:58;95706.47;;;42.02;13.28
79075;BME280;68476;42.710;23.388;2023-08-21T12:29:23;95703.25;;;43.12;12.69
79075;BME280;68476;42.710;23.388;2023-08-21T12:31:48;95705.13;;;40.83;13.74
79075;BME280;68476;42.710;23.388;2023-08-21T12:34:14;95706.41;;;39.84;14.59
79075;BME280;68476;42.710;23.388;2023-08-21T12:36:39;95697.69;;;39.42;14.58
79075;BME280;68476;42.710;23.388;2023-08-21T12:39:06;95694.22;;;40.32;14.46
79075;BME280;68476;42.710;23.388;2023-08-21T12:41:32;95696.31;;;42.69;12.37
79075;BME280;68476;42.710;23.388;2023-08-21T12:44:00;95694.16;;;43.37;11.90
79075;BME280;68476;42.710;23.388;2023-08-21T12:46:28;95690.16;;;41.99;12.54
79075;BME280;68476;42.710;23.388;2023-08-21T12:48:55;95688.69;;;43.63;12.06
79075;BME280;68476;42.710;23.388;2023-08-21T12:51:20;95688.97;;;41.07;14.19
79075;BME280;68476;42.710;23.388;2023-08-21T12:53:46;95671.19;;;41.23;13.98
79075;BME280;68476;42.710;23.388;2023-08-21T12:56:11;95678.97;;;40.88;14.32
79075;BME280;68476;42.710;23.388;2023-08-21T12:58:37;95676.16;;;39.97;15.38